createdAt,value
2023-05-25T00:02:25.918Z,9.30
2023-05-25T00:12:32.947Z,9.50
2023-05-25T00:22:39.904Z,10.00
2023-05-25T00:32:46.458Z,10.20
2023-05-25T00:42:53.995Z,11.50
2023-05-25T00:53:00.560Z,10.30
2023-05-25T01:03:13.174Z,11.00
2023-05-25T01:13:21.505Z,10.80
2023-05-25T01:23:32.825Z,10.40
2023-05-25T01:33:39.942Z,9.80
2023-05-25T01:43:47.276Z,10.40
2023-05-25T01:54:02.257Z,10.20
2023-05-25T02:04:09.035Z,10.30
2023-05-25T02:14:15.661Z,11.10
2023-05-25T02:24:26.176Z,10.10
2023-05-25T02:34:31.772Z,8.85
2023-05-25T02:44:38.274Z,9.60
2023-05-25T02:54:44.831Z,9.00
2023-05-25T03:04:55.010Z,9.60
2023-05-25T03:15:01.569Z,10.70
2023-05-25T03:25:08.771Z,10.20
2023-05-25T03:35:15.307Z,10.80
2023-05-25T03:45:22.263Z,12.20
2023-05-25T03:55:29.710Z,10.90
2023-05-25T04:05:36.459Z,11.80
2023-05-25T04:15:43.255Z,12.30
2023-05-25T04:25:52.572Z,10.80
2023-05-25T04:36:02.087Z,11.50
2023-05-25T04:46:09.668Z,12.40
2023-05-25T04:56:18.088Z,15.70
2023-05-25T05:06:27.057Z,12.80
2023-05-25T05:16:36.298Z,10.90
2023-05-25T05:26:56.251Z,10.90
2023-05-25T05:37:04.554Z,9.50
2023-05-25T05:47:11.039Z,9.90
2023-05-25T05:57:17.493Z,10.10
2023-05-25T06:07:23.965Z,11.10
2023-05-25T06:17:31.250Z,12.10
2023-05-25T06:27:38.044Z,13.10
2023-05-25T06:37:44.551Z,13.10
2023-05-25T06:47:51.132Z,12.30
2023-05-25T06:57:57.738Z,11.50
2023-05-25T07:08:04.254Z,12.20
2023-05-25T07:18:13.682Z,13.80
2023-05-25T07:28:20.166Z,11.60
2023-05-25T07:38:26.807Z,11.80
2023-05-25T07:48:33.258Z,12.90
2023-05-25T07:58:39.863Z,12.20
2023-05-25T08:08:46.717Z,13.80
2023-05-25T08:18:53.874Z,13.30
2023-05-25T08:29:00.440Z,14.60
2023-05-25T08:39:09.350Z,15.00
2023-05-25T08:49:16.759Z,15.60
2023-05-25T08:59:27.955Z,16.20
2023-05-25T09:09:36.575Z,16.30
2023-05-25T09:19:43.416Z,16.60
2023-05-25T09:29:53.327Z,16.40
2023-05-25T09:39:59.895Z,15.80
2023-05-25T09:50:07.040Z,15.80
2023-05-25T10:00:14.254Z,15.00
2023-05-25T10:10:22.004Z,16.30
2023-05-25T10:20:30.489Z,16.10
2023-05-25T10:30:38.417Z,17.10
2023-05-25T10:40:46.109Z,17.00
2023-05-25T10:50:53.110Z,14.40
2023-05-25T11:01:09.989Z,12.90
2023-05-25T11:11:17.205Z,14.70
2023-05-25T11:21:43.774Z,13.50
2023-05-25T11:31:57.428Z,13.60
2023-05-25T11:42:06.076Z,14.60
2023-05-25T11:52:15.776Z,13.00
2023-05-25T12:02:23.576Z,14.10
2023-05-25T12:12:30.152Z,12.80
2023-05-25T12:22:36.886Z,12.00
2023-05-25T12:33:02.405Z,12.70
2023-05-25T12:43:10.375Z,12.40
2023-05-25T12:53:17.029Z,13.70
2023-05-25T13:03:23.907Z,12.80
2023-05-25T13:13:30.376Z,12.90
2023-05-25T13:23:37.094Z,13.30
2023-05-25T13:33:43.637Z,14.00
2023-05-25T13:43:50.214Z,14.40
2023-05-25T13:53:57.062Z,14.60
2023-05-25T14:04:03.748Z,15.20
2023-05-25T14:14:23.191Z,13.60
2023-05-25T14:24:37.005Z,15.30
2023-05-25T14:34:43.797Z,14.50
2023-05-25T14:44:50.314Z,13.70
2023-05-25T14:54:57.237Z,15.90
2023-05-25T15:05:03.799Z,15.10
2023-05-25T15:15:10.891Z,12.70
2023-05-25T15:25:24.560Z,14.60
2023-05-25T15:35:38.054Z,13.40
2023-05-25T15:45:44.872Z,14.10
2023-05-25T15:55:51.779Z,14.60
2023-05-25T16:05:58.516Z,14.70
2023-05-25T16:16:05.049Z,16.80
2023-05-25T16:26:11.605Z,16.90
2023-05-25T16:36:18.552Z,16.20
2023-05-25T16:46:26.923Z,16.20
2023-05-25T16:56:33.496Z,16.30
2023-05-25T17:06:40.027Z,18.30
2023-05-25T17:16:46.612Z,17.00
2023-05-25T17:26:53.185Z,15.00
2023-05-25T17:36:59.816Z,14.10
2023-05-25T17:47:09.180Z,14.80
2023-05-25T17:57:17.492Z,15.40
2023-05-25T18:07:24.097Z,15.20
2023-05-25T18:17:30.639Z,17.60
2023-05-25T18:27:35.637Z,17.85
2023-05-25T18:37:42.621Z,16.60
2023-05-25T18:47:49.144Z,17.10
2023-05-25T18:57:55.682Z,20.00
2023-05-25T19:08:02.357Z,17.80
2023-05-25T19:18:09.116Z,18.30
2023-05-25T19:28:15.720Z,19.40
2023-05-25T19:38:24.680Z,18.70
2023-05-25T19:48:33.206Z,18.60
2023-05-25T19:58:39.700Z,19.40
2023-05-25T20:08:46.337Z,19.50
2023-05-25T20:18:52.931Z,21.00
2023-05-25T20:28:59.412Z,19.30
2023-05-25T20:39:05.935Z,18.40
2023-05-25T20:49:12.495Z,20.00
2023-05-25T20:59:19.100Z,20.50
2023-05-25T21:09:25.746Z,19.60
2023-05-25T21:19:32.452Z,19.50
2023-05-25T21:29:38.946Z,19.70
2023-05-25T21:39:45.553Z,21.00
2023-05-25T21:49:52.228Z,19.60
2023-05-25T21:59:58.725Z,20.80
2023-05-25T22:10:05.331Z,21.30
2023-05-25T22:20:12.619Z,21.90
2023-05-25T22:30:19.144Z,22.80
2023-05-25T22:40:25.716Z,21.60
2023-05-25T22:50:32.229Z,22.80
2023-05-25T23:00:38.828Z,22.90
2023-05-25T23:10:45.395Z,24.80
2023-05-25T23:20:52.076Z,21.60
2023-05-25T23:30:58.573Z,22.60
2023-05-25T23:41:05.127Z,22.50
2023-05-25T23:51:12.096Z,22.30
